sensor_id;sensor_type;location;lat;lon;timestamp;pressure;altitude;pressure_sealevel;temperature;humidity
19150;BME280;9707;49.158;8.632;2023-02-14T00:00:18;102355.63;;;17.60;32.37
19150;BME280;9707;49.158;8.632;2023-02-14T00:02:46;102353.94;;;17.57;32.61
19150;BME280;9707;49.158;8.632;2023-02-14T00:05:11;102350.34;;;17.57;32.55
19150;BME280;9707;49.158;8.632;2023-02-14T00:07:37;102348.59;;;17.56;32.95
19150;BME280;9707;49.158;8.632;2023-02-14T00:10:02;102345.84;;;17.57;32.76
19150;BME280;9707;49.158;8.632;2023-02-14T00:12:27;102347.63;;;17.57;32.32
19150;BME280;9707;49.158;8.632;2023-02-14T00:14:52;102350.47;;;17.54;32.03
19150;BME280;9707;49.158;8.632;2023-02-14T00:17:36;102351.50;;;17.50;32.38
19150;BME280;9707;49.158;8.632;2023-02-14T00:20:02;102355.16;;;17.49;32.54
19150;BME280;9707;49.158;8.632;2023-02-14T00:22:28;102353.41;;;17.48;32.49
19150;BME280;9707;49.158;8.632;2023-02-14T00:24:53;102346.25;;;17.47;32.69
19150;BME280;9707;49.158;8.632;2023-02-14T00:27:18;102353.41;;;17.48;32.62
19150;BME280;9707;49.158;8.632;2023-02-14T00:29:44;102346.25;;;17.47;32.80
19150;BME280;9707;49.158;8.632;2023-02-14T00:32:09;102348.94;;;17.47;32.54
19150;BME280;9707;49.158;8.632;2023-02-14T00:34:34;102350.75;;;17.46;32.03
19150;BME280;9707;49.158;8.632;2023-02-14T00:37:01;102355.38;;;17.43;31.78
19150;BME280;9707;49.158;8.632;2023-02-14T00:39:26;102350.06;;;17.40;31.86
19150;BME280;9707;49.158;8.632;2023-02-14T00:41:51;102350.19;;;17.37;31.82
19150;BME280;9707;49.158;8.632;2023-02-14T00:44:17;102352.97;;;17.34;31.75
19150;BME280;9707;49.158;8.632;2023-02-14T00:46:43;102347.63;;;17.32;31.63
19150;BME280;9707;49.158;8.632;2023-02-14T00:49:08;102356.75;;;17.28;31.65
19150;BME280;9707;49.158;8.632;2023-02-14T00:51:34;102344.25;;;17.26;31.47
19150;BME280;9707;49.158;8.632;2023-02-14T00:53:59;102341.69;;;17.23;31.78
19150;BME280;9707;49.158;8.632;2023-02-14T00:56:24;102348.94;;;17.21;31.76
19150;BME280;9707;49.158;8.632;2023-02-14T00:58:50;102338.28;;;17.18;31.74
19150;BME280;9707;49.158;8.632;2023-02-14T01:01:16;102341.91;;;17.17;31.81
19150;BME280;9707;49.158;8.632;2023-02-14T01:03:41;102337.44;;;17.16;31.92
19150;BME280;9707;49.158;8.632;2023-02-14T01:06:07;102350.00;;;17.17;32.50
19150;BME280;9707;49.158;8.632;2023-02-14T01:08:33;102353.56;;;17.17;31.97
19150;BME280;9707;49.158;8.632;2023-02-14T01:11:13;102349.16;;;17.15;31.55
19150;BME280;9707;49.158;8.632;2023-02-14T01:13:39;102350.09;;;17.14;31.59
19150;BME280;9707;49.158;8.632;2023-02-14T01:16:11;102350.13;;;17.12;31.45
19150;BME280;9707;49.158;8.632;2023-02-14T01:18:37;102350.25;;;17.09;31.60
19150;BME280;9707;49.158;8.632;2023-02-14T01:21:21;102351.16;;;17.08;31.51
19150;BME280;9707;49.158;8.632;2023-02-14T01:23:49;102349.47;;;17.06;31.58
19150;BME280;9707;49.158;8.632;2023-02-14T01:26:16;102358.47;;;17.05;31.25
19150;BME280;9707;49.158;8.632;2023-02-14T01:28:42;102362.06;;;17.05;32.16
19150;BME280;9707;49.158;8.632;2023-02-14T01:31:13;102359.38;;;17.05;31.65
19150;BME280;9707;49.158;8.632;2023-02-14T01:33:40;102363.00;;;17.04;31.76
19150;BME280;9707;49.158;8.632;2023-02-14T01:36:06;102359.47;;;17.02;31.62
19150;BME280;9707;49.158;8.632;2023-02-14T01:38:38;102358.59;;;17.02;31.37
19150;BME280;9707;49.158;8.632;2023-02-14T01:41:03;102351.44;;;17.01;31.40
19150;BME280;9707;49.158;8.632;2023-02-14T01:43:29;102356.00;;;16.99;31.77
19150;BME280;9707;49.158;8.632;2023-02-14T01:45:54;102354.25;;;16.98;31.57
19150;BME280;9707;49.158;8.632;2023-02-14T01:48:20;102353.41;;;16.96;31.39
19150;BME280;9707;49.158;8.632;2023-02-14T01:50:49;102370.50;;;16.95;31.52
19150;BME280;9707;49.158;8.632;2023-02-14T01:53:23;102361.59;;;16.93;31.50
19150;BME280;9707;49.158;8.632;2023-02-14T01:55:57;102368.78;;;16.92;31.41
19150;BME280;9707;49.158;8.632;2023-02-14T01:58:28;102366.13;;;16.91;31.19
19150;BME280;9707;49.158;8.632;2023-02-14T02:00:56;102365.31;;;16.89;31.36
19150;BME280;9707;49.158;8.632;2023-02-14T02:03:23;102366.25;;;16.88;31.42
19150;BME280;9707;49.158;8.632;2023-02-14T02:05:52;102375.28;;;16.87;31.28
19150;BME280;9707;49.158;8.632;2023-02-14T02:08:20;102362.72;;;16.86;31.44
19150;BME280;9707;49.158;8.632;2023-02-14T02:10:45;102373.50;;;16.86;31.29
19150;BME280;9707;49.158;8.632;2023-02-14T02:13:16;102361.00;;;16.83;31.19
19150;BME280;9707;49.158;8.632;2023-02-14T02:15:58;102357.47;;;16.83;31.40
19150;BME280;9707;49.158;8.632;2023-02-14T02:18:38;102363.81;;;16.80;31.41
19150;BME280;9707;49.158;8.632;2023-02-14T02:24:38;102368.44;;;16.77;31.49
19150;BME280;9707;49.158;8.632;2023-02-14T02:32:48;102362.28;;;16.73;31.40
19150;BME280;9707;49.158;8.632;2023-02-14T02:40:48;102351.59;;;16.70;31.26
19150;BME280;9707;49.158;8.632;2023-02-14T02:46:23;102350.72;;;16.70;31.45
19150;BME280;9707;49.158;8.632;2023-02-14T02:52:26;102366.09;;;16.66;31.90
19150;BME280;9707;49.158;8.632;2023-02-14T02:55:35;102366.09;;;16.66;31.96
19150;BME280;9707;49.158;8.632;2023-02-14T02:58:25;102364.31;;;16.65;31.98
19150;BME280;9707;49.158;8.632;2023-02-14T03:00:52;102362.47;;;16.67;32.28
19150;BME280;9707;49.158;8.632;2023-02-14T03:03:20;102360.66;;;16.68;31.89
19150;BME280;9707;49.158;8.632;2023-02-14T03:06:06;102359.72;;;16.69;32.90
19150;BME280;9707;49.158;8.632;2023-02-14T03:08:32;102355.06;;;16.74;33.01
19150;BME280;9707;49.158;8.632;2023-02-14T03:10:58;102354.03;;;16.78;32.66
19150;BME280;9707;49.158;8.632;2023-02-14T03:16:24;102350.41;;;16.79;32.31
19150;BME280;9707;49.158;8.632;2023-02-14T03:19:08;102350.41;;;16.79;32.74
19150;BME280;9707;49.158;8.632;2023-02-14T03:22:02;102353.03;;;16.82;33.14
19150;BME280;9707;49.158;8.632;2023-02-14T03:24:49;102345.72;;;16.85;33.48
19150;BME280;9707;49.158;8.632;2023-02-14T03:27:27;102340.19;;;16.88;32.96
19150;BME280;9707;49.158;8.632;2023-02-14T03:32:49;102338.22;;;16.93;33.18
19150;BME280;9707;49.158;8.632;2023-02-14T03:35:31;102343.56;;;16.95;33.00
19150;BME280;9707;49.158;8.632;2023-02-14T03:38:07;102342.53;;;16.99;34.47
19150;BME280;9707;49.158;8.632;2023-02-14T03:43:06;102357.44;;;17.09;34.29
19150;BME280;9707;49.158;8.632;2023-02-14T03:45:39;102356.41;;;17.13;33.99
19150;BME280;9707;49.158;8.632;2023-02-14T03:48:10;102354.53;;;17.15;33.32
19150;BME280;9707;49.158;8.632;2023-02-14T03:50:37;102358.97;;;17.16;32.97
19150;BME280;9707;49.158;8.632;2023-02-14T03:53:06;102357.22;;;17.15;32.53
19150;BME280;9707;49.158;8.632;2023-02-14T03:55:43;102360.06;;;17.12;32.32
19150;BME280;9707;49.158;8.632;2023-02-14T03:58:33;102358.38;;;17.08;32.66
19150;BME280;9707;49.158;8.632;2023-02-14T04:01:15;102356.63;;;17.07;33.01
19150;BME280;9707;49.158;8.632;2023-02-14T04:03:44;102362.84;;;17.09;33.98
19150;BME280;9707;49.158;8.632;2023-02-14T04:06:09;102358.25;;;17.11;34.39
19150;BME280;9707;49.158;8.632;2023-02-14T04:08:35;102358.19;;;17.14;33.89
19150;BME280;9707;49.158;8.632;2023-02-14T04:11:01;102361.69;;;17.16;33.33
19150;BME280;9707;49.158;8.632;2023-02-14T04:13:28;102363.47;;;17.17;33.17
19150;BME280;9707;49.158;8.632;2023-02-14T04:15:53;102365.22;;;17.18;32.76
19150;BME280;9707;49.158;8.632;2023-02-14T04:18:19;102361.59;;;17.19;34.04
19150;BME280;9707;49.158;8.632;2023-02-14T04:21:03;102359.72;;;17.21;33.97
19150;BME280;9707;49.158;8.632;2023-02-14T04:23:28;102359.66;;;17.22;33.31
19150;BME280;9707;49.158;8.632;2023-02-14T04:25:54;102359.72;;;17.21;32.66
19150;BME280;9707;49.158;8.632;2023-02-14T04:28:19;102355.38;;;17.17;32.28
19150;BME280;9707;49.158;8.632;2023-02-14T04:30:45;102355.44;;;17.15;33.10
19150;BME280;9707;49.158;8.632;2023-02-14T04:33:10;102353.59;;;17.16;33.83
19150;BME280;9707;49.158;8.632;2023-02-14T04:35:35;102354.44;;;17.18;33.56
19150;BME280;9707;49.158;8.632;2023-02-14T04:38:01;102354.44;;;17.18;33.50
19150;BME280;9707;49.158;8.632;2023-02-14T04:40:27;102344.53;;;17.18;33.08
19150;BME280;9707;49.158;8.632;2023-02-14T04:42:53;102347.22;;;17.18;32.50
19150;BME280;9707;49.158;8.632;2023-02-14T04:45:18;102346.41;;;17.16;33.02
19150;BME280;9707;49.158;8.632;2023-02-14T04:47:43;102344.66;;;17.15;33.05
19150;BME280;9707;49.158;8.632;2023-02-14T04:50:09;102348.22;;;17.16;33.40
19150;BME280;9707;49.158;8.632;2023-02-14T04:52:34;102349.09;;;17.16;34.06
19150;BME280;9707;49.158;8.632;2023-02-14T04:55:02;102354.31;;;17.21;34.61
19150;BME280;9707;49.158;8.632;2023-02-14T04:57:28;102348.84;;;17.24;33.90
19150;BME280;9707;49.158;8.632;2023-02-14T04:59:53;102344.22;;;17.27;34.45
19150;BME280;9707;49.158;8.632;2023-02-14T05:02:19;102352.25;;;17.29;32.68
19150;BME280;9707;49.158;8.632;2023-02-14T05:04:44;102342.41;;;17.28;32.51
19150;BME280;9707;49.158;8.632;2023-02-14T05:07:09;102343.44;;;17.24;32.46
19150;BME280;9707;49.158;8.632;2023-02-14T05:09:35;102338.09;;;17.22;32.98
19150;BME280;9707;49.158;8.632;2023-02-14T05:12:00;102333.56;;;17.24;34.10
19150;BME280;9707;49.158;8.632;2023-02-14T05:14:25;102336.19;;;17.26;33.44
19150;BME280;9707;49.158;8.632;2023-02-14T05:16:50;102334.38;;;17.26;33.23
19150;BME280;9707;49.158;8.632;2023-02-14T05:19:16;102342.47;;;17.26;34.19
19150;BME280;9707;49.158;8.632;2023-02-14T05:21:41;102328.94;;;17.28;32.84
19150;BME280;9707;49.158;8.632;2023-02-14T05:24:06;102334.44;;;17.25;33.53
19150;BME280;9707;49.158;8.632;2023-02-14T05:26:32;102328.94;;;17.28;33.73
19150;BME280;9707;49.158;8.632;2023-02-14T05:28:57;102340.59;;;17.28;33.58
19150;BME280;9707;49.158;8.632;2023-02-14T05:31:22;102342.38;;;17.29;33.15
19150;BME280;9707;49.158;8.632;2023-02-14T05:33:48;102344.16;;;17.29;33.45
19150;BME280;9707;49.158;8.632;2023-02-14T05:36:13;102345.91;;;17.30;33.89
19150;BME280;9707;49.158;8.632;2023-02-14T05:38:39;102341.38;;;17.32;33.62
19150;BME280;9707;49.158;8.632;2023-02-14T05:41:04;102337.75;;;17.33;32.94
19150;BME280;9707;49.158;8.632;2023-02-14T05:43:32;102344.97;;;17.31;33.46
19150;BME280;9707;49.158;8.632;2023-02-14T05:45:57;102339.53;;;17.32;33.09
19150;BME280;9707;49.158;8.632;2023-02-14T05:48:23;102349.47;;;17.32;33.57
19150;BME280;9707;49.158;8.632;2023-02-14T05:50:48;102343.13;;;17.33;33.92
19150;BME280;9707;49.158;8.632;2023-02-14T05:53:14;102342.19;;;17.34;33.57
19150;BME280;9707;49.158;8.632;2023-02-14T05:55:39;102347.56;;;17.34;33.59
19150;BME280;9707;49.158;8.632;2023-02-14T05:58:04;102345.78;;;17.34;33.73
19150;BME280;9707;49.158;8.632;2023-02-14T06:00:30;102344.78;;;17.37;33.52
19150;BME280;9707;49.158;8.632;2023-02-14T06:02:55;102350.28;;;17.34;32.96
19150;BME280;9707;49.158;8.632;2023-02-14T06:05:20;102348.53;;;17.33;33.57
19150;BME280;9707;49.158;8.632;2023-02-14T06:07:48;102354.78;;;17.33;33.59
19150;BME280;9707;49.158;8.632;2023-02-14T06:10:18;102355.66;;;17.34;34.25
19150;BME280;9707;49.158;8.632;2023-02-14T06:12:44;102357.31;;;17.38;34.87
19150;BME280;9707;49.158;8.632;2023-02-14T06:15:10;102352.72;;;17.41;34.72
19150;BME280;9707;49.158;8.632;2023-02-14T06:17:35;102349.97;;;17.43;33.67
19150;BME280;9707;49.158;8.632;2023-02-14T06:20:00;102351.84;;;17.41;33.06
19150;BME280;9707;49.158;8.632;2023-02-14T06:22:26;102357.31;;;17.38;33.16
19150;BME280;9707;49.158;8.632;2023-02-14T06:24:51;102368.09;;;17.38;33.73
19150;BME280;9707;49.158;8.632;2023-02-14T06:27:16;102359.09;;;17.39;33.88
19150;BME280;9707;49.158;8.632;2023-02-14T06:29:41;102371.63;;;17.40;33.85
19150;BME280;9707;49.158;8.632;2023-02-14T06:32:07;102366.19;;;17.41;33.66
19150;BME280;9707;49.158;8.632;2023-02-14T06:34:33;102364.50;;;17.39;32.73
19150;BME280;9707;49.158;8.632;2023-02-14T06:36:58;102367.38;;;17.33;31.33
19150;BME280;9707;49.158;8.632;2023-02-14T06:39:23;102371.28;;;17.24;31.29
19150;BME280;9707;49.158;8.632;2023-02-14T06:41:49;102372.44;;;17.16;31.36
19150;BME280;9707;49.158;8.632;2023-02-14T06:44:14;102372.63;;;17.11;34.65
19150;BME280;9707;49.158;8.632;2023-02-14T06:46:39;102376.03;;;17.16;35.17
19150;BME280;9707;49.158;8.632;2023-02-14T06:49:05;102375.88;;;17.21;35.10
19150;BME280;9707;49.158;8.632;2023-02-14T06:51:30;102373.88;;;17.26;34.97
19150;BME280;9707;49.158;8.632;2023-02-14T06:53:55;102376.44;;;17.30;34.18
19150;BME280;9707;49.158;8.632;2023-02-14T06:56:21;102370.06;;;17.33;33.49
19150;BME280;9707;49.158;8.632;2023-02-14T06:58:46;102371.00;;;17.32;31.90
19150;BME280;9707;49.158;8.632;2023-02-14T07:01:11;102380.16;;;17.26;33.71
19150;BME280;9707;49.158;8.632;2023-02-14T07:03:37;102377.44;;;17.28;34.60
19150;BME280;9707;49.158;8.632;2023-02-14T07:06:02;102381.88;;;17.29;33.50
19150;BME280;9707;49.158;8.632;2023-02-14T07:08:27;102380.94;;;17.30;34.42
19150;BME280;9707;49.158;8.632;2023-02-14T07:10:56;102382.66;;;17.32;33.66
19150;BME280;9707;49.158;8.632;2023-02-14T07:13:22;102378.97;;;17.35;33.63
19150;BME280;9707;49.158;8.632;2023-02-14T07:15:48;102378.88;;;17.38;34.42
19150;BME280;9707;49.158;8.632;2023-02-14T07:18:13;102377.03;;;17.40;34.62
19150;BME280;9707;49.158;8.632;2023-02-14T07:20:38;102373.28;;;17.44;34.53
19150;BME280;9707;49.158;8.632;2023-02-14T07:23:04;102379.50;;;17.46;33.43
19150;BME280;9707;49.158;8.632;2023-02-14T07:25:29;102376.88;;;17.44;33.95
19150;BME280;9707;49.158;8.632;2023-02-14T07:27:54;102374.19;;;17.44;33.68
19150;BME280;9707;49.158;8.632;2023-02-14T07:30:20;102376.81;;;17.46;34.09
19150;BME280;9707;49.158;8.632;2023-02-14T07:32:45;102370.50;;;17.47;33.50
19150;BME280;9707;49.158;8.632;2023-02-14T07:35:11;102373.19;;;17.47;33.35
19150;BME280;9707;49.158;8.632;2023-02-14T07:37:36;102369.59;;;17.46;33.61
19150;BME280;9707;49.158;8.632;2023-02-14T07:40:03;102366.91;;;17.46;33.04
19150;BME280;9707;49.158;8.632;2023-02-14T07:42:29;102373.19;;;17.47;34.03
19150;BME280;9707;49.158;8.632;2023-02-14T07:44:54;102372.22;;;17.49;34.43
19150;BME280;9707;49.158;8.632;2023-02-14T07:47:19;102365.81;;;17.52;34.33
19150;BME280;9707;49.158;8.632;2023-02-14T07:49:45;102363.03;;;17.53;33.81
19150;BME280;9707;49.158;8.632;2023-02-14T07:52:10;102359.50;;;17.53;34.02
19150;BME280;9707;49.158;8.632;2023-02-14T07:54:36;102364.88;;;17.53;33.02
19150;BME280;9707;49.158;8.632;2023-02-14T07:57:03;102362.25;;;17.51;32.89
19150;BME280;9707;49.158;8.632;2023-02-14T07:59:28;102373.06;;;17.50;33.35
19150;BME280;9707;49.158;8.632;2023-02-14T08:01:54;102374.00;;;17.49;32.11
19150;BME280;9707;49.158;8.632;2023-02-14T08:04:20;102375.03;;;17.45;32.72
19150;BME280;9707;49.158;8.632;2023-02-14T08:06:45;102373.28;;;17.44;32.78
19150;BME280;9707;49.158;8.632;2023-02-14T08:09:11;102376.03;;;17.42;33.05
19150;BME280;9707;49.158;8.632;2023-02-14T08:11:48;102372.41;;;17.43;33.83
19150;BME280;9707;49.158;8.632;2023-02-14T08:14:32;102370.56;;;17.45;33.52
19150;BME280;9707;49.158;8.632;2023-02-14T08:16:58;102373.19;;;17.47;34.21
19150;BME280;9707;49.158;8.632;2023-02-14T08:19:25;102364.13;;;17.49;33.89
19150;BME280;9707;49.158;8.632;2023-02-14T08:21:50;102367.69;;;17.50;32.63
19150;BME280;9707;49.158;8.632;2023-02-14T08:24:16;102358.78;;;17.48;33.31
19150;BME280;9707;49.158;8.632;2023-02-14T08:26:41;102365.03;;;17.48;33.83
19150;BME280;9707;49.158;8.632;2023-02-14T08:29:06;102371.22;;;17.52;33.95
19150;BME280;9707;49.158;8.632;2023-02-14T08:31:31;102364.88;;;17.53;33.41
19150;BME280;9707;49.158;8.632;2023-02-14T08:33:57;102365.75;;;17.53;33.04
19150;BME280;9707;49.158;8.632;2023-02-14T08:36:22;102363.94;;;17.54;33.23
19150;BME280;9707;49.158;8.632;2023-02-14T08:38:47;102363.91;;;17.55;33.58
19150;BME280;9707;49.158;8.632;2023-02-14T08:41:15;102367.41;;;17.57;34.18
19150;BME280;9707;49.158;8.632;2023-02-14T08:43:40;102370.84;;;17.61;33.95
19150;BME280;9707;49.158;8.632;2023-02-14T08:46:06;102363.63;;;17.63;33.81
19150;BME280;9707;49.158;8.632;2023-02-14T08:48:33;102365.38;;;17.64;33.19
19150;BME280;9707;49.158;8.632;2023-02-14T08:51:04;102368.00;;;17.65;33.96
19150;BME280;9707;49.158;8.632;2023-02-14T08:53:29;102363.47;;;17.66;33.44
19150;BME280;9707;49.158;8.632;2023-02-14T08:55:54;102359.84;;;17.67;33.59
19150;BME280;9707;49.158;8.632;2023-02-14T08:58:20;102367.06;;;17.66;32.94
19150;BME280;9707;49.158;8.632;2023-02-14T09:00:45;102364.38;;;17.66;32.93
19150;BME280;9707;49.158;8.632;2023-02-14T09:03:10;102368.88;;;17.66;33.72
19150;BME280;9707;49.158;8.632;2023-02-14T09:05:36;102377.72;;;17.69;34.40
19150;BME280;9707;49.158;8.632;2023-02-14T09:08:02;102374.94;;;17.72;34.11
19150;BME280;9707;49.158;8.632;2023-02-14T09:10:27;102368.53;;;17.75;33.77
19150;BME280;9707;49.158;8.632;2023-02-14T09:12:53;102366.66;;;17.77;34.20
19150;BME280;9707;49.158;8.632;2023-02-14T09:15:18;102370.19;;;17.79;33.26
19150;BME280;9707;49.158;8.632;2023-02-14T09:17:44;102372.03;;;17.77;33.69
19150;BME280;9707;49.158;8.632;2023-02-14T09:20:11;102379.22;;;17.78;33.83
19150;BME280;9707;49.158;8.632;2023-02-14T09:22:36;102371.06;;;17.79;33.48
19150;BME280;9707;49.158;8.632;2023-02-14T09:25:02;102364.81;;;17.79;33.13
19150;BME280;9707;49.158;8.632;2023-02-14T09:27:27;102370.19;;;17.79;33.45
19150;BME280;9707;49.158;8.632;2023-02-14T09:29:53;102371.94;;;17.80;33.90
19150;BME280;9707;49.158;8.632;2023-02-14T09:32:18;102371.91;;;17.81;33.35
19150;BME280;9707;49.158;8.632;2023-02-14T09:34:43;102367.38;;;17.82;33.44
19150;BME280;9707;49.158;8.632;2023-02-14T09:37:27;102362.91;;;17.81;33.29
19150;BME280;9707;49.158;8.632;2023-02-14T09:40:13;102357.53;;;17.81;33.63
19150;BME280;9707;49.158;8.632;2023-02-14T09:45:25;102359.19;;;17.85;33.61
19150;BME280;9707;49.158;8.632;2023-02-14T09:50:32;102349.38;;;17.82;31.96
19150;BME280;9707;49.158;8.632;2023-02-14T09:53:05;102347.69;;;17.80;32.11
19150;BME280;9707;49.158;8.632;2023-02-14T09:55:46;102346.88;;;17.78;32.98
19150;BME280;9707;49.158;8.632;2023-02-14T09:58:19;102349.56;;;17.78;32.81
19150;BME280;9707;49.158;8.632;2023-02-14T10:01:02;102347.69;;;17.80;32.54
19150;BME280;9707;49.158;8.632;2023-02-14T10:03:53;102346.75;;;17.81;33.83
19150;BME280;9707;49.158;8.632;2023-02-14T10:06:41;102345.78;;;17.82;32.55
19150;BME280;9707;49.158;8.632;2023-02-14T10:09:28;102336.84;;;17.81;32.48
19150;BME280;9707;49.158;8.632;2023-02-14T10:11:57;102335.00;;;17.82;33.27
19150;BME280;9707;49.158;8.632;2023-02-14T10:14:30;102335.84;;;17.84;33.03
19150;BME280;9707;49.158;8.632;2023-02-14T10:17:22;102332.22;;;17.85;32.40
19150;BME280;9707;49.158;8.632;2023-02-14T10:19:58;102340.25;;;17.86;32.76
19150;BME280;9707;49.158;8.632;2023-02-14T10:22:36;102332.97;;;17.88;32.37
19150;BME280;9707;49.158;8.632;2023-02-14T10:25:19;102324.81;;;17.90;33.28
19150;BME280;9707;49.158;8.632;2023-02-14T10:27:46;102323.84;;;17.92;32.63
19150;BME280;9707;49.158;8.632;2023-02-14T10:30:18;102324.72;;;17.93;32.90
19150;BME280;9707;49.158;8.632;2023-02-14T10:37:57;102321.94;;;17.94;32.15
19150;BME280;9707;49.158;8.632;2023-02-14T10:46:36;102311.03;;;17.97;32.74
19150;BME280;9707;49.158;8.632;2023-02-14T10:51:56;102304.75;;;17.97;31.60
19150;BME280;9707;49.158;8.632;2023-02-14T10:54:26;102306.59;;;17.96;32.39
19150;BME280;9707;49.158;8.632;2023-02-14T10:56:58;102307.41;;;17.98;31.66
19150;BME280;9707;49.158;8.632;2023-02-14T10:59:33;102305.66;;;17.97;31.70
19150;BME280;9707;49.158;8.632;2023-02-14T11:02:00;102311.03;;;17.97;32.17
19150;BME280;9707;49.158;8.632;2023-02-14T11:04:26;102299.31;;;17.98;31.95
19150;BME280;9707;49.158;8.632;2023-02-14T11:06:54;102297.50;;;17.99;31.76
19150;BME280;9707;49.158;8.632;2023-02-14T11:09:19;102303.75;;;17.99;32.05
19150;BME280;9707;49.158;8.632;2023-02-14T11:11:58;102287.59;;;17.99;31.53
19150;BME280;9707;49.158;8.632;2023-02-14T11:16:54;102294.66;;;18.02;32.85
19150;BME280;9707;49.158;8.632;2023-02-14T11:21:47;102281.84;;;18.08;31.30
19150;BME280;9707;49.158;8.632;2023-02-14T11:26:49;102267.72;;;18.02;30.77
19150;BME280;9707;49.158;8.632;2023-02-14T11:29:25;102265.25;;;17.96;30.65
19150;BME280;9707;49.158;8.632;2023-02-14T11:31:51;102266.25;;;17.93;32.19
19150;BME280;9707;49.158;8.632;2023-02-14T11:34:40;102263.50;;;17.95;31.47
19150;BME280;9707;49.158;8.632;2023-02-14T11:39:48;102254.63;;;17.93;31.22
19150;BME280;9707;49.158;8.632;2023-02-14T11:42:32;102251.13;;;17.89;30.75
19150;BME280;9707;49.158;8.632;2023-02-14T11:44:57;102253.03;;;17.87;31.31
19150;BME280;9707;49.158;8.632;2023-02-14T11:47:28;102249.31;;;17.90;31.46
19150;BME280;9707;49.158;8.632;2023-02-14T11:50:05;102245.69;;;17.91;31.38
19150;BME280;9707;49.158;8.632;2023-02-14T11:52:32;102246.56;;;17.91;31.70
19150;BME280;9707;49.158;8.632;2023-02-14T11:55:03;102238.44;;;17.93;31.54
19150;BME280;9707;49.158;8.632;2023-02-14T11:57:34;102236.53;;;17.95;31.62
19150;BME280;9707;49.158;8.632;2023-02-14T12:00:10;102228.41;;;17.96;31.62
19150;BME280;9707;49.158;8.632;2023-02-14T12:02:39;102229.25;;;17.97;31.19
19150;BME280;9707;49.158;8.632;2023-02-14T12:05:18;102229.25;;;17.97;31.47
19150;BME280;9707;49.158;8.632;2023-02-14T12:07:49;102221.13;;;17.98;31.69
19150;BME280;9707;49.158;8.632;2023-02-14T12:10:20;102216.47;;;18.02;32.40
19150;BME280;9707;49.158;8.632;2023-02-14T12:12:59;102215.41;;;18.06;31.91
19150;BME280;9707;49.158;8.632;2023-02-14T12:15:30;102216.25;;;18.08;31.54
19150;BME280;9707;49.158;8.632;2023-02-14T12:26:14;102201.28;;;17.99;31.09
19150;BME280;9707;49.158;8.632;2023-02-14T12:28:48;102195.97;;;17.98;31.32
19150;BME280;9707;49.158;8.632;2023-02-14T12:31:15;102187.91;;;17.98;31.31
19150;BME280;9707;49.158;8.632;2023-02-14T12:33:43;102187.91;;;17.98;31.27
19150;BME280;9707;49.158;8.632;2023-02-14T12:36:23;102180.66;;;17.98;31.52
19150;BME280;9707;49.158;8.632;2023-02-14T12:42:10;102178.72;;;18.02;32.42
19150;BME280;9707;49.158;8.632;2023-02-14T12:44:56;102177.59;;;18.07;32.42
19150;BME280;9707;49.158;8.632;2023-02-14T12:47:51;102173.84;;;18.11;32.17
19150;BME280;9707;49.158;8.632;2023-02-14T12:56:13;102160.16;;;18.16;32.53
19150;BME280;9707;49.158;8.632;2023-02-14T12:58:48;102163.53;;;18.21;33.06
19150;BME280;9707;49.158;8.632;2023-02-14T13:11:35;102146.94;;;18.30;33.16
19150;BME280;9707;49.158;8.632;2023-02-14T13:21:50;102139.38;;;18.39;32.54
19150;BME280;9707;49.158;8.632;2023-02-14T13:24:25;102138.41;;;18.40;31.89
19150;BME280;9707;49.158;8.632;2023-02-14T13:26:55;102139.50;;;18.36;31.06
19150;BME280;9707;49.158;8.632;2023-02-14T13:29:28;102134.31;;;18.30;31.14
19150;BME280;9707;49.158;8.632;2023-02-14T13:31:59;102122.00;;;18.25;31.51
19150;BME280;9707;49.158;8.632;2023-02-14T13:34:32;102128.41;;;18.22;31.53
19150;BME280;9707;49.158;8.632;2023-02-14T13:37:01;102128.34;;;18.24;32.27
19150;BME280;9707;49.158;8.632;2023-02-14T13:39:36;102122.00;;;18.25;31.95
19150;BME280;9707;49.158;8.632;2023-02-14T13:42:03;102116.47;;;18.28;32.33
19150;BME280;9707;49.158;8.632;2023-02-14T13:47:04;102109.94;;;18.33;32.31
19150;BME280;9707;49.158;8.632;2023-02-14T13:49:35;102108.06;;;18.35;31.86
19150;BME280;9707;49.158;8.632;2023-02-14T13:52:04;102099.09;;;18.35;31.72
19150;BME280;9707;49.158;8.632;2023-02-14T13:54:39;102095.56;;;18.33;31.71
19150;BME280;9707;49.158;8.632;2023-02-14T13:57:33;102095.63;;;18.31;31.42
19150;BME280;9707;49.158;8.632;2023-02-14T14:02:50;102096.66;;;18.29;32.46
19150;BME280;9707;49.158;8.632;2023-02-14T14:10:49;102094.75;;;18.31;31.75
19150;BME280;9707;49.158;8.632;2023-02-14T14:13:54;102084.84;;;18.31;32.66
19150;BME280;9707;49.158;8.632;2023-02-14T14:18:50;102095.44;;;18.36;32.75
19150;BME280;9707;49.158;8.632;2023-02-14T14:21:32;102084.59;;;18.37;32.15
19150;BME280;9707;49.158;8.632;2023-02-14T14:29:30;102089.00;;;18.40;32.02
19150;BME280;9707;49.158;8.632;2023-02-14T14:31:56;102084.38;;;18.42;31.71
19150;BME280;9707;49.158;8.632;2023-02-14T14:34:25;102081.84;;;18.39;31.73
19150;BME280;9707;49.158;8.632;2023-02-14T14:37:02;102079.19;;;18.37;31.85
19150;BME280;9707;49.158;8.632;2023-02-14T14:39:30;102078.31;;;18.37;31.97
19150;BME280;9707;49.158;8.632;2023-02-14T14:42:07;102072.91;;;18.37;31.64
19150;BME280;9707;49.158;8.632;2023-02-14T14:44:34;102072.97;;;18.35;32.00
19150;BME280;9707;49.158;8.632;2023-02-14T14:47:01;102076.56;;;18.36;32.16
19150;BME280;9707;49.158;8.632;2023-02-14T14:49:27;102067.53;;;18.37;32.08
19150;BME280;9707;49.158;8.632;2023-02-14T14:51:54;102072.06;;;18.36;31.65
19150;BME280;9707;49.158;8.632;2023-02-14T14:54:20;102065.84;;;18.34;31.20
19150;BME280;9707;49.158;8.632;2023-02-14T14:56:51;102057.03;;;18.29;31.48
19150;BME280;9707;49.158;8.632;2023-02-14T15:01:47;102055.34;;;18.27;32.26
19150;BME280;9707;49.158;8.632;2023-02-14T15:04:23;102050.84;;;18.27;31.94
19150;BME280;9707;49.158;8.632;2023-02-14T15:06:49;102049.94;;;18.27;31.68